Terminal Aerodrome Forecast
Issued by NWS Quad Cities IA IL

Home | Current Version | Previous Version | Text Only | Print | Product List | Glossary On
Versions: 1 2 3 4 5 6 7 8 9 10 11 12 13 14 15
897
FTUS43 KDVN 281439 AAB
TAFDBQ
TAF AMD
KDBQ 281439Z 2815/2912 17013G20KT P6SM SCT025 BKN060
      TEMPO 2815/2817 -SHRA BKN005
     FM281700 21014G25KT P6SM SCT050 BKN150
     FM282200 22012KT 5SM TSRA BR OVC030CB
     FM290100 20008KT P6SM BKN080=

USA.gov is the U.S. government's official web portal to all federal, state and local government web resources and services.